createdAt,value
2023-02-24T00:01:15.536Z,100714.16
2023-02-24T00:03:42.133Z,100715.28
2023-02-24T00:06:08.695Z,100715.56
2023-02-24T00:08:35.569Z,100707.50
2023-02-24T00:11:09.166Z,100713.84
2023-02-24T00:13:36.217Z,100719.53
2023-02-24T00:16:04.704Z,100719.78
2023-02-24T00:18:33.768Z,100721.19
2023-02-24T00:21:05.683Z,100725.56
2023-02-24T00:23:32.264Z,100724.66
2023-02-24T00:25:59.676Z,100725.59
2023-02-24T00:28:28.187Z,100724.41
2023-02-24T00:30:54.849Z,100729.50
2023-02-24T00:33:21.603Z,100727.22
2023-02-24T00:35:48.157Z,100721.50
2023-02-24T00:38:14.826Z,100716.63
2023-02-24T00:40:41.588Z,100717.19
2023-02-24T00:43:08.160Z,100722.84
2023-02-24T00:45:36.873Z,100723.94
2023-02-24T00:48:03.447Z,100716.25
2023-02-24T00:50:30.567Z,100723.75
2023-02-24T00:52:57.178Z,100714.22
2023-02-24T00:55:23.790Z,100715.75
2023-02-24T00:57:50.492Z,100714.16
2023-02-24T01:00:18.161Z,100709.06
2023-02-24T01:02:46.113Z,100705.78
2023-02-24T01:05:13.448Z,100703.47
2023-02-24T01:07:40.066Z,100709.09
2023-02-24T01:10:06.992Z,100709.63
2023-02-24T01:12:33.740Z,100713.66
2023-02-24T01:15:00.314Z,100706.84
2023-02-24T01:17:26.928Z,100711.63
2023-02-24T01:19:54.943Z,100701.28
2023-02-24T01:22:21.748Z,100715.69
2023-02-24T01:24:48.575Z,100715.94
2023-02-24T01:27:16.822Z,100706.56
2023-02-24T01:29:43.575Z,100703.16
2023-02-24T01:32:18.212Z,100704.38
2023-02-24T01:34:45.036Z,100698.78
2023-02-24T01:37:13.118Z,100695.38
2023-02-24T01:39:39.684Z,100693.69
2023-02-24T01:42:06.388Z,100688.69
2023-02-24T01:45:10.226Z,100687.13
2023-02-24T01:47:36.789Z,100695.63
2023-02-24T01:50:03.958Z,100683.44
2023-02-24T01:52:36.434Z,100687.09
2023-02-24T01:55:08.581Z,100678.34
2023-02-24T01:57:37.900Z,100684.31
2023-02-24T02:00:07.062Z,100684.69
2023-02-24T02:02:33.850Z,100676.88
2023-02-24T02:05:03.748Z,100683.13
2023-02-24T02:07:32.083Z,100685.19
2023-02-24T02:10:00.976Z,100682.03
2023-02-24T02:12:28.389Z,100677.28
2023-02-24T02:14:57.504Z,100681.31
2023-02-24T02:17:30.261Z,100673.38
2023-02-24T02:20:20.956Z,100676.31
2023-02-24T02:23:20.713Z,100672.94
2023-02-24T02:26:08.840Z,100671.06
2023-02-24T02:29:07.685Z,100673.16
2023-02-24T02:31:56.005Z,100671.56
2023-02-24T02:34:39.861Z,100664.88
2023-02-24T02:37:12.009Z,100669.53
2023-02-24T02:39:48.211Z,100664.97
2023-02-24T02:42:25.508Z,100657.09
2023-02-24T02:44:56.562Z,100657.34
2023-02-24T02:47:27.929Z,100661.84
2023-02-24T02:50:00.158Z,100662.69
2023-02-24T02:52:32.259Z,100651.97
2023-02-24T02:55:06.624Z,100657.34
2023-02-24T02:57:35.781Z,100654.03
2023-02-24T03:00:07.834Z,100651.22
2023-02-24T03:02:35.828Z,100649.66
2023-02-24T03:05:07.176Z,100649.66
2023-02-24T03:07:37.732Z,100644.28
2023-02-24T03:10:08.485Z,100641.63
2023-02-24T03:12:36.316Z,100645.25
2023-02-24T03:15:08.184Z,100638.94
2023-02-24T03:17:40.903Z,100633.44
2023-02-24T03:20:13.728Z,100628.22
2023-02-24T03:22:45.566Z,100624.78
2023-02-24T03:25:12.221Z,100624.66
2023-02-24T03:27:45.703Z,100626.59
2023-02-24T03:30:16.909Z,100626.59
2023-02-24T03:32:49.456Z,100617.72
2023-02-24T03:35:21.284Z,100620.38
2023-02-24T03:37:48.488Z,100610.63
2023-02-24T03:40:15.826Z,100599.09
2023-02-24T03:42:47.137Z,100600.16
2023-02-24T03:45:14.256Z,100602.00
2023-02-24T03:47:41.050Z,100589.59
2023-02-24T03:50:12.293Z,100597.63
2023-02-24T03:52:44.803Z,100597.75
2023-02-24T03:55:21.333Z,100590.66
2023-02-24T03:58:00.497Z,100581.91
2023-02-24T04:00:35.235Z,100590.91
2023-02-24T04:03:11.154Z,100572.38
2023-02-24T04:05:45.672Z,100584.09
2023-02-24T04:08:16.005Z,100578.84
2023-02-24T04:10:50.688Z,100576.06
2023-02-24T04:13:23.152Z,100570.69
2023-02-24T04:15:55.392Z,100571.56
2023-02-24T04:18:27.162Z,100572.63
2023-02-24T04:20:55.506Z,100567.44
2023-02-24T04:23:28.865Z,100567.53
2023-02-24T04:25:55.397Z,100565.81
2023-02-24T04:28:23.418Z,100551.56
2023-02-24T04:30:53.920Z,100553.28
2023-02-24T04:33:20.948Z,100548.78
2023-02-24T04:35:49.541Z,100549.75
2023-02-24T04:38:16.293Z,100539.03
2023-02-24T04:40:44.257Z,100548.88
2023-02-24T04:43:10.984Z,100537.31
2023-02-24T04:45:37.574Z,100535.50
2023-02-24T04:48:04.242Z,100533.78
2023-02-24T04:50:32.464Z,100530.13
2023-02-24T04:53:00.969Z,100523.91
2023-02-24T04:55:29.756Z,100525.63
2023-02-24T04:57:58.634Z,100522.94
2023-02-24T05:00:26.060Z,100512.34
2023-02-24T05:02:55.317Z,100511.63
2023-02-24T05:05:23.233Z,100508.22
2023-02-24T05:07:49.814Z,100507.25
2023-02-24T05:10:16.800Z,100500.06
2023-02-24T05:12:43.481Z,100502.84
2023-02-24T05:15:12.388Z,100496.66
2023-02-24T05:17:39.050Z,100496.88
2023-02-24T05:20:07.232Z,100486.44
2023-02-24T05:22:33.945Z,100486.53
2023-02-24T05:25:00.582Z,100490.06
2023-02-24T05:27:27.209Z,100477.53
2023-02-24T05:29:55.447Z,100475.81
2023-02-24T05:32:23.731Z,100482.16
2023-02-24T05:34:50.596Z,100473.41
2023-02-24T05:37:17.164Z,100467.19
2023-02-24T05:39:43.769Z,100470.84
2023-02-24T05:42:10.405Z,100468.16
2023-02-24T05:44:37.030Z,100463.81
2023-02-24T05:47:04.132Z,100462.94
2023-02-24T05:49:33.837Z,100463.81
2023-02-24T05:52:02.877Z,100463.81
2023-02-24T05:54:31.635Z,100465.47
2023-02-24T05:56:59.574Z,100467.19
2023-02-24T05:59:26.796Z,100461.84
2023-02-24T06:01:53.545Z,100463.66
2023-02-24T06:04:20.618Z,100460.88
2023-02-24T06:06:49.198Z,100454.75
2023-02-24T06:09:15.794Z,100456.59
2023-02-24T06:11:43.697Z,100447.72
2023-02-24T06:14:11.670Z,100446.00
2023-02-24T06:16:40.305Z,100438.94
2023-02-24T06:19:08.629Z,100435.41
2023-02-24T06:21:35.427Z,100437.25
2023-02-24T06:24:03.545Z,100438.94
2023-02-24T06:26:30.125Z,100431.78
2023-02-24T06:28:57.867Z,100438.94
2023-02-24T06:31:25.224Z,100422.88
2023-02-24T06:33:52.166Z,100424.81
2023-02-24T06:36:19.143Z,100420.19
2023-02-24T06:38:46.194Z,100413.28
2023-02-24T06:41:14.108Z,100418.63
2023-02-24T06:43:43.386Z,100414.84
2023-02-24T06:46:12.261Z,100403.38
2023-02-24T06:48:39.021Z,100407.78
2023-02-24T06:51:07.043Z,100405.09
2023-02-24T06:53:34.455Z,100403.38
2023-02-24T06:56:04.741Z,100400.69
2023-02-24T06:58:33.171Z,100399.72
2023-02-24T07:00:59.796Z,100400.69
2023-02-24T07:03:28.278Z,100399.72
2023-02-24T07:05:55.019Z,100398.03
2023-02-24T07:08:22.650Z,100392.66
2023-02-24T07:10:53.664Z,100390.00
2023-02-24T07:13:20.286Z,100390.72
2023-02-24T07:15:48.460Z,100389.16
2023-02-24T07:18:16.047Z,100383.66
2023-02-24T07:20:42.900Z,100379.28
2023-02-24T07:23:09.672Z,100377.59
2023-02-24T07:25:36.589Z,100373.22
2023-02-24T07:28:03.339Z,100364.19
2023-02-24T07:30:30.580Z,100357.03
2023-02-24T07:32:58.995Z,100351.41
2023-02-24T07:35:26.152Z,100344.22
2023-02-24T07:37:52.736Z,100355.53
2023-02-24T07:40:19.491Z,100341.00
2023-02-24T07:42:46.110Z,100335.41
2023-02-24T07:45:12.727Z,100326.25
2023-02-24T07:47:39.514Z,100319.81
2023-02-24T07:50:08.982Z,100319.53
2023-02-24T07:52:35.573Z,100315.63
2023-02-24T07:55:02.354Z,100309.13
2023-02-24T07:57:28.983Z,100301.09
2023-02-24T07:59:55.621Z,100295.50
2023-02-24T08:02:22.238Z,100297.06
2023-02-24T08:04:50.632Z,100290.47
2023-02-24T08:07:19.699Z,100290.19
2023-02-24T08:09:46.562Z,100275.81
2023-02-24T08:12:15.417Z,100269.47
2023-02-24T08:14:42.109Z,100264.81
2023-02-24T08:17:08.857Z,100272.63
2023-02-24T08:19:35.467Z,100267.56
2023-02-24T08:22:02.370Z,100266.31
2023-02-24T08:24:30.326Z,100255.91
2023-02-24T08:26:57.426Z,100259.06
2023-02-24T08:29:24.257Z,100251.47
2023-02-24T08:31:50.945Z,100248.22
2023-02-24T08:34:17.663Z,100251.34
2023-02-24T08:36:44.272Z,100235.84
2023-02-24T08:39:10.824Z,100240.09
2023-02-24T08:41:38.977Z,100244.03
2023-02-24T08:44:05.541Z,100231.94
2023-02-24T08:46:32.207Z,100233.47
2023-02-24T08:48:59.905Z,100226.84
2023-02-24T08:51:29.489Z,100216.31
2023-02-24T08:53:58.289Z,100216.63
2023-02-24T08:56:28.543Z,100210.16
2023-02-24T08:58:58.343Z,100211.69
2023-02-24T09:01:28.404Z,100200.81
2023-02-24T09:03:57.352Z,100195.28
2023-02-24T09:06:35.285Z,100191.75
2023-02-24T09:09:02.086Z,100193.34
2023-02-24T09:11:28.721Z,100179.75
2023-02-24T09:13:56.638Z,100178.09
2023-02-24T09:16:24.080Z,100176.94
2023-02-24T09:18:51.129Z,100174.81
2023-02-24T09:21:17.700Z,100166.34
2023-02-24T09:23:45.532Z,100166.09
2023-02-24T09:26:12.367Z,100161.41
2023-02-24T09:28:39.377Z,100156.03
2023-02-24T09:31:07.530Z,100152.19
2023-02-24T09:33:36.200Z,100150.97
2023-02-24T09:36:06.279Z,100146.41
2023-02-24T09:38:32.880Z,100138.78
2023-02-24T09:41:02.794Z,100138.22
2023-02-24T09:43:31.576Z,100138.66
2023-02-24T09:46:05.214Z,100132.69
2023-02-24T09:48:39.271Z,100119.97
2023-02-24T09:51:06.164Z,100115.28
2023-02-24T09:53:35.345Z,100107.94
2023-02-24T09:56:10.357Z,100109.34
2023-02-24T09:58:44.247Z,100113.28
2023-02-24T10:01:23.759Z,100105.06
2023-02-24T10:03:57.754Z,100101.69
2023-02-24T10:06:27.632Z,100092.66
2023-02-24T10:08:58.696Z,100096.31
2023-02-24T10:11:29.322Z,100092.66
2023-02-24T10:13:56.622Z,100093.63
2023-02-24T10:16:25.240Z,100091.94
2023-02-24T10:19:00.777Z,100087.28
2023-02-24T10:21:33.112Z,100089.66
2023-02-24T10:24:08.148Z,100079.91
2023-02-24T10:26:45.480Z,100083.88
2023-02-24T10:29:29.028Z,100087.13
2023-02-24T10:32:05.407Z,100085.34
2023-02-24T10:34:33.819Z,100080.81
2023-02-24T10:37:03.171Z,100076.03
2023-02-24T10:39:30.504Z,100072.91
2023-02-24T10:41:59.403Z,100067.97
2023-02-24T10:44:28.972Z,100064.19
2023-02-24T10:47:02.997Z,100054.72
2023-02-24T10:49:29.726Z,100054.16
2023-02-24T10:51:57.669Z,100053.44
2023-02-24T10:54:26.597Z,100041.44
2023-02-24T10:56:53.532Z,100041.28
2023-02-24T10:59:20.124Z,100040.88
2023-02-24T11:01:52.756Z,100033.81
2023-02-24T11:04:19.439Z,100032.25
2023-02-24T11:06:46.018Z,100024.09
2023-02-24T11:09:18.860Z,100018.97
2023-02-24T11:11:47.290Z,100021.25
2023-02-24T11:14:17.023Z,100018.13
2023-02-24T11:16:46.723Z,100016.72
2023-02-24T11:19:13.444Z,100000.88
2023-02-24T11:21:42.742Z,99994.97
2023-02-24T11:24:16.620Z,99992.41
2023-02-24T11:26:45.823Z,99986.34
2023-02-24T11:29:26.205Z,99976.19
2023-02-24T11:32:08.669Z,99964.59
2023-02-24T11:34:43.776Z,99965.03
2023-02-24T11:37:18.279Z,99963.63
2023-02-24T11:39:52.036Z,99953.19
2023-02-24T11:42:25.538Z,99951.47
2023-02-24T11:44:58.293Z,99946.41
2023-02-24T11:47:31.157Z,99944.03
2023-02-24T11:50:06.286Z,99937.94
2023-02-24T11:52:35.924Z,99927.22
2023-02-24T11:55:12.500Z,99922.41
2023-02-24T11:57:46.534Z,99917.03
2023-02-24T12:00:17.346Z,99914.34
2023-02-24T12:02:49.768Z,99906.91
2023-02-24T12:05:19.272Z,99901.97
2023-02-24T12:07:50.298Z,99895.88
2023-02-24T12:10:21.356Z,99886.88
2023-02-24T12:13:00.809Z,99882.78
2023-02-24T12:15:31.877Z,99880.38
2023-02-24T12:18:06.032Z,99873.19
2023-02-24T12:20:37.593Z,99878.69
2023-02-24T12:23:13.682Z,99870.09
2023-02-24T12:25:56.687Z,99865.16
2023-02-24T12:28:36.697Z,99860.34
2023-02-24T12:31:13.471Z,99857.25
2023-02-24T12:33:49.118Z,99848.50
2023-02-24T12:36:27.139Z,99838.50
2023-02-24T12:39:03.591Z,99839.91
2023-02-24T12:41:55.296Z,99827.50
2023-02-24T12:44:34.602Z,99823.84
2023-02-24T12:47:06.422Z,99819.44
2023-02-24T12:50:01.643Z,99811.53
2023-02-24T12:52:37.798Z,99808.31
2023-02-24T12:55:11.239Z,99803.94
2023-02-24T12:57:45.082Z,99798.03
2023-02-24T13:00:18.863Z,99794.34
2023-02-24T13:02:57.453Z,99785.34
2023-02-24T13:05:30.682Z,99787.84
2023-02-24T13:08:18.558Z,99780.66
2023-02-24T13:10:50.600Z,99768.41
2023-02-24T13:13:23.429Z,99771.09
2023-02-24T13:15:53.927Z,99754.59
2023-02-24T13:18:25.645Z,99760.25
2023-02-24T13:21:03.992Z,99757.84
2023-02-24T13:23:31.018Z,99755.31
2023-02-24T13:25:57.915Z,99750.81
2023-02-24T13:28:27.407Z,99743.03
2023-02-24T13:31:01.512Z,99749.41
2023-02-24T13:33:31.299Z,99745.31
2023-02-24T13:36:16.894Z,99736.56
2023-02-24T13:38:45.513Z,99730.38
2023-02-24T13:41:37.016Z,99726.84
2023-02-24T13:44:22.843Z,99717.28
2023-02-24T13:47:12.728Z,99709.22
2023-02-24T13:49:50.951Z,99699.38
2023-02-24T13:52:28.544Z,99712.03
2023-02-24T13:55:28.867Z,99708.81
2023-02-24T13:58:40.860Z,99701.63
2023-02-24T14:01:09.847Z,99690.06
2023-02-24T14:03:39.792Z,99691.22
2023-02-24T14:06:14.290Z,99685.00
2023-02-24T14:08:45.178Z,99678.50
2023-02-24T14:11:15.222Z,99674.72
2023-02-24T14:13:45.909Z,99672.19
2023-02-24T14:16:19.635Z,99665.13
2023-02-24T14:18:56.046Z,99667.81
2023-02-24T14:21:25.067Z,99668.78
2023-02-24T14:23:59.872Z,99663.28
2023-02-24T14:26:28.168Z,99664.44
2023-02-24T14:28:57.944Z,99665.41
2023-02-24T14:31:26.186Z,99657.38
2023-02-24T14:33:58.523Z,99652.03
2023-02-24T14:36:28.573Z,99654.84
2023-02-24T14:39:12.649Z,99639.91
2023-02-24T14:41:39.498Z,99639.91
2023-02-24T14:44:17.115Z,99635.69
2023-02-24T14:46:48.413Z,99641.03
2023-02-24T14:49:21.291Z,99634.00
2023-02-24T14:51:52.631Z,99642.19
2023-02-24T14:54:35.337Z,99635.41
2023-02-24T14:57:02.857Z,99632.75
2023-02-24T14:59:33.265Z,99626.41
2023-02-24T15:02:01.374Z,99620.22
2023-02-24T15:04:34.266Z,99618.63
2023-02-24T15:07:03.185Z,99608.94
2023-02-24T15:09:36.607Z,99607.94
2023-02-24T15:12:12.141Z,99611.63
2023-02-24T15:14:41.288Z,99600.06
2023-02-24T15:17:15.001Z,99588.53
2023-02-24T15:19:43.624Z,99579.63
2023-02-24T15:22:19.721Z,99581.47
2023-02-24T15:24:46.461Z,99568.38
2023-02-24T15:27:22.171Z,99566.56
2023-02-24T15:29:58.721Z,99563.03
2023-02-24T15:32:27.311Z,99563.03
2023-02-24T15:34:55.755Z,99545.28
2023-02-24T15:37:24.098Z,99549.78
2023-02-24T15:39:55.389Z,99551.47
2023-02-24T15:42:26.129Z,99546.97
2023-02-24T15:44:54.981Z,99539.94
2023-02-24T15:47:24.176Z,99539.06
2023-02-24T15:49:50.873Z,99536.41
2023-02-24T15:52:22.612Z,99532.03
2023-02-24T15:54:50.233Z,99526.00
2023-02-24T15:57:18.230Z,99534.16
2023-02-24T15:59:45.242Z,99521.75
2023-02-24T16:02:13.726Z,99529.66
2023-02-24T16:04:40.343Z,99520.78
2023-02-24T16:07:10.854Z,99510.91
2023-02-24T16:09:40.768Z,99511.75
2023-02-24T16:12:11.150Z,99503.75
2023-02-24T16:14:38.348Z,99503.75
2023-02-24T16:17:08.758Z,99503.03
2023-02-24T16:19:35.485Z,99495.72
2023-02-24T16:22:02.222Z,99485.84
2023-02-24T16:24:28.865Z,99493.72
2023-02-24T16:26:56.850Z,99484.88
2023-02-24T16:29:23.430Z,99479.53
2023-02-24T16:31:50.421Z,99474.97
2023-02-24T16:34:17.312Z,99480.34
2023-02-24T16:36:44.332Z,99483.00
2023-02-24T16:39:12.349Z,99482.19
2023-02-24T16:41:39.050Z,99474.97
2023-02-24T16:44:07.058Z,99478.38
2023-02-24T16:46:39.068Z,99473.31
2023-02-24T16:49:09.723Z,99471.50
2023-02-24T16:51:36.465Z,99468.09
2023-02-24T16:54:03.423Z,99468.94
2023-02-24T16:56:30.692Z,99466.41
2023-02-24T16:58:57.298Z,99464.56
2023-02-24T17:01:25.544Z,99461.06
2023-02-24T17:03:53.583Z,99463.91
2023-02-24T17:06:22.997Z,99469.25
2023-02-24T17:08:50.702Z,99469.25
2023-02-24T17:11:20.866Z,99466.56
2023-02-24T17:13:47.569Z,99454.84
2023-02-24T17:16:14.257Z,99459.22
2023-02-24T17:18:42.267Z,99452.75
2023-02-24T17:21:11.722Z,99458.09
2023-02-24T17:23:38.357Z,99455.25
2023-02-24T17:26:05.251Z,99449.78
2023-02-24T17:28:31.929Z,99455.97
2023-02-24T17:30:58.626Z,99450.63
2023-02-24T17:33:25.281Z,99444.44
2023-02-24T17:35:53.246Z,99440.78
2023-02-24T17:38:21.462Z,99428.91
2023-02-24T17:40:48.233Z,99430.59
2023-02-24T17:43:14.872Z,99426.09
2023-02-24T17:45:42.110Z,99424.94
2023-02-24T17:48:08.699Z,99420.31
2023-02-24T17:50:35.405Z,99418.44
2023-02-24T17:53:03.723Z,99417.63
2023-02-24T17:55:31.978Z,99417.63
2023-02-24T17:57:59.340Z,99395.19
2023-02-24T18:00:26.480Z,99394.34
2023-02-24T18:02:53.672Z,99387.16
2023-02-24T18:05:20.381Z,99396.22
2023-02-24T18:07:47.091Z,99390.88
2023-02-24T18:10:15.164Z,99387.88
2023-02-24T18:12:41.832Z,99376.31
2023-02-24T18:15:09.848Z,99378.16
2023-02-24T18:17:37.148Z,99378.28
2023-02-24T18:20:04.409Z,99375.34
2023-02-24T18:22:31.326Z,99373.34
2023-02-24T18:24:58.100Z,99366.88
2023-02-24T18:27:26.538Z,99362.50
2023-02-24T18:29:53.298Z,99359.97
2023-02-24T18:32:20.115Z,99362.50
2023-02-24T18:34:47.216Z,99356.16
2023-02-24T18:37:13.868Z,99352.50
2023-02-24T18:39:40.507Z,99348.81
2023-02-24T18:42:07.144Z,99354.84
2023-02-24T18:44:35.150Z,99354.84
2023-02-24T18:47:01.941Z,99341.16
2023-02-24T18:49:28.631Z,99346.38
2023-02-24T18:51:55.237Z,99348.88
2023-02-24T18:54:21.870Z,99345.09
2023-02-24T18:56:48.513Z,99339.56
2023-02-24T18:59:15.183Z,99341.25
2023-02-24T19:01:43.299Z,99339.41
2023-02-24T19:04:11.790Z,99339.28
2023-02-24T19:06:38.775Z,99331.25
2023-02-24T19:09:07.113Z,99316.88
2023-02-24T19:11:33.913Z,99316.88
2023-02-24T19:14:00.656Z,99318.53
2023-02-24T19:16:27.655Z,99308.66
2023-02-24T19:18:58.396Z,99307.81
2023-02-24T19:21:26.030Z,99308.53
2023-02-24T19:23:52.823Z,99304.84
2023-02-24T19:26:21.699Z,99294.13
2023-02-24T19:28:48.814Z,99295.81
2023-02-24T19:31:20.628Z,99295.66
2023-02-24T19:33:52.044Z,99292.84
2023-02-24T19:36:20.326Z,99296.19
2023-02-24T19:38:47.237Z,99287.47
2023-02-24T19:41:14.005Z,99286.47
2023-02-24T19:43:40.614Z,99283.97
2023-02-24T19:46:08.807Z,99288.47
2023-02-24T19:48:36.163Z,99280.44
2023-02-24T19:51:08.637Z,99281.28
2023-02-24T19:53:36.924Z,99280.44
2023-02-24T19:56:03.656Z,99275.59
2023-02-24T19:58:30.394Z,99271.94
2023-02-24T20:01:04.393Z,99269.94
2023-02-24T20:03:31.126Z,99262.75
2023-02-24T20:05:57.961Z,99264.56
2023-02-24T20:08:24.649Z,99265.41
2023-02-24T20:11:00.013Z,99261.75
2023-02-24T20:13:26.707Z,99257.25
2023-02-24T20:15:53.342Z,99254.41
2023-02-24T20:18:19.959Z,99249.06
2023-02-24T20:20:46.610Z,99262.47
2023-02-24T20:23:13.341Z,99261.44
2023-02-24T20:25:40.097Z,99259.59
2023-02-24T20:28:08.144Z,99256.94
2023-02-24T20:30:37.132Z,99258.75
2023-02-24T20:33:04.024Z,99256.06
2023-02-24T20:35:30.736Z,99254.09
2023-02-24T20:37:57.610Z,99249.41
2023-02-24T20:40:24.613Z,99244.91
2023-02-24T20:42:51.460Z,99241.22
2023-02-24T20:45:19.606Z,99240.38
2023-02-24T20:47:46.348Z,99236.72
2023-02-24T20:50:13.038Z,99233.06
2023-02-24T20:52:39.874Z,99230.38
2023-02-24T20:55:07.521Z,99224.84
2023-02-24T20:57:34.217Z,99223.84
2023-02-24T21:00:04.227Z,99213.97
2023-02-24T21:02:32.474Z,99216.66
2023-02-24T21:04:59.194Z,99214.13
2023-02-24T21:07:26.029Z,99208.09
2023-02-24T21:09:52.821Z,99211.78
2023-02-24T21:12:19.462Z,99209.22
2023-02-24T21:14:46.109Z,99218.97
2023-02-24T21:17:12.798Z,99203.06
2023-02-24T21:19:41.074Z,99207.41
2023-02-24T21:22:07.736Z,99198.53
2023-02-24T21:24:34.363Z,99202.75
2023-02-24T21:27:01.149Z,99199.22
2023-02-24T21:29:27.828Z,99196.53
2023-02-24T21:31:54.513Z,99194.56
2023-02-24T21:34:21.358Z,99190.00
2023-02-24T21:36:49.822Z,99181.00
2023-02-24T21:39:16.486Z,99181.84
2023-02-24T21:41:43.449Z,99188.03
2023-02-24T21:44:11.749Z,99175.47
2023-02-24T21:46:38.582Z,99175.31
2023-02-24T21:49:05.299Z,99170.78
2023-02-24T21:51:31.967Z,99174.31
2023-02-24T21:53:59.931Z,99166.13
2023-02-24T21:56:28.846Z,99163.44
2023-02-24T21:58:58.130Z,99153.59
2023-02-24T22:01:27.360Z,99150.91
2023-02-24T22:03:55.014Z,99150.72
2023-02-24T22:06:22.159Z,99153.41
2023-02-24T22:08:48.937Z,99151.56
2023-02-24T22:11:19.652Z,99147.06
2023-02-24T22:13:46.979Z,99150.56
2023-02-24T22:16:16.222Z,99140.69
2023-02-24T22:18:42.955Z,99139.72
2023-02-24T22:21:11.540Z,99141.38
2023-02-24T22:23:38.923Z,99144.75
2023-02-24T22:26:07.054Z,99139.38
2023-02-24T22:28:36.950Z,99135.72
2023-02-24T22:31:03.681Z,99127.66
2023-02-24T22:33:32.529Z,99137.41
2023-02-24T22:36:01.441Z,99137.41
2023-02-24T22:38:30.402Z,99135.53
2023-02-24T22:40:58.152Z,99133.69
2023-02-24T22:43:25.094Z,99133.03
2023-02-24T22:45:58.147Z,99133.03
2023-02-24T22:48:26.630Z,99128.66
2023-02-24T22:50:54.781Z,99129.50
2023-02-24T22:53:21.805Z,99128.50
2023-02-24T22:55:49.132Z,99124.81
2023-02-24T22:58:16.120Z,99130.03
2023-02-24T23:00:43.060Z,99125.50
2023-02-24T23:03:11.143Z,99127.19
2023-02-24T23:05:37.698Z,99131.56
2023-02-24T23:08:04.400Z,99134.25
2023-02-24T23:10:31.031Z,99128.03
2023-02-24T23:12:57.679Z,99127.84
2023-02-24T23:15:24.242Z,99121.84
2023-02-24T23:17:50.900Z,99122.69
2023-02-24T23:20:19.558Z,99123.53
2023-02-24T23:22:46.306Z,99111.97
2023-02-24T23:25:12.985Z,99114.94
2023-02-24T23:27:40.391Z,99126.34
2023-02-24T23:30:08.830Z,99113.28
2023-02-24T23:32:35.986Z,99116.25
2023-02-24T23:35:03.174Z,99112.06
2023-02-24T23:37:31.082Z,99112.22
2023-02-24T23:39:57.779Z,99111.38
2023-02-24T23:42:24.363Z,99107.84
2023-02-24T23:44:51.068Z,99102.50
2023-02-24T23:47:17.666Z,99107.19
2023-02-24T23:49:48.541Z,99103.53
2023-02-24T23:52:15.353Z,99092.09
2023-02-24T23:54:43.702Z,99096.63
2023-02-24T23:57:10.305Z,99086.09
2023-02-24T23:59:37.228Z,99088.59
